• Join FlightAware (Why Join?)
  • Login
  • US Flag 
09:36PM EST


 

Airport Tracker/Info


-or-


 

Live Flight TrackerFlight Track Log ✈ LYM752 ✈ 04-Oct-2013 ✈ KDEN - KGJT

Flight Track Log - Related Links

Times and Time Zones

All times are in EDT time to prevent confusion due to time zone crossing. See the LYM752 flight status page for this flight to view local times or setup timezone preferences in your user account.

Time Position Orientation Groundspeed Altitude Reporting Facility
EDT Latitude Longitude Course Direction KTS MPH feet Rate Location/Type
07:33AM 39.8500 -104.7000 247° West 134 154 7,100  Level Denver TRACON
07:34AM 39.8333 -104.7500 247° West 134 154 7,800 720 Climbing Denver TRACON
07:35AM 39.8186 -104.7939 246° West 121 139 8,800 720 Climbing Denver Center
07:36AM 39.8128 -104.8325 259° West 110 127 9,500 660 Climbing Denver Center
07:37AM 39.8094 -104.8697 263° West 106 122 10,200 660 Climbing Denver Center
07:38AM 39.8042 -104.9081 260° West 107 123 10,900 600 Climbing Denver Center
07:39AM 39.7989 -104.9469 260° West 109 125 11,400 540 Climbing Denver Center
07:40AM 39.7944 -104.9861 262° West 111 128 12,000 600 Climbing Denver Center
07:41AM 39.7883 -105.0292 260° West 120 138 12,700 540 Climbing Denver Center
07:42AM 39.7811 -105.0708 257° West 119 137 13,100 360 Climbing Denver Center
07:43AM 39.7758 -105.1153 261° West 124 143 13,500 480 Climbing Denver Center
07:44AM 39.7733 -105.1614 266° West 127 146 14,100 600 Climbing Denver Center
07:45AM 39.7656 -105.2050 257° West 122 140 14,700 540 Climbing Denver Center
07:46AM 39.7578 -105.2481 257° West 122 140 15,300 480 Climbing Denver Center
07:47AM 39.7511 -105.2917 259° West 123 142 15,700 420 Climbing Denver Center
07:48AM 39.7456 -105.3311 260° West 112 129 16,200 480 Climbing Denver Center
07:49AM 39.7383 -105.3689 256° West 108 124 16,700 420 Climbing Denver Center
07:50AM 39.7336 -105.4083 261° West 109 125 17,100 180 Climbing Denver Center
07:51AM 39.7303 -105.4547 265° West 129 148 17,100  Level Denver Center
07:52AM 39.7167 -105.5025 250° West 139 160 17,100  Level Denver Center
07:53AM 39.7106 -105.5567 262° West 156 180 17,100  Level Denver Center
07:54AM 39.7075 -105.6150 266° West 163 188 17,100 -60 Level Denver Center
07:55AM 39.6989 -105.6711 259° West 160 184 17,000  Descending Denver Center
07:56AM 39.6856 -105.7275 253° West 164 189 17,100 60 Climbing Denver Center
07:57AM 39.6769 -105.7839 259° West 162 186 17,200  Climbing Denver Center
07:58AM 39.6633 -105.8425 253° West 161 185 17,200  Level Denver Center
07:59AM 39.6497 -105.8989 253° West 163 188 17,200  Level Denver Center
08:00AM 39.6361 -105.9561 253° West 165 190 17,200  Level Denver Center
08:01AM 39.6306 -106.0153 263° West 164 189 17,200 -60 Level Denver Center
08:02AM 39.6200 -106.0753 257° West 168 193 17,100 -60 Descending Denver Center
08:03AM 39.6067 -106.1225 250° West 166 191 17,100  Level Denver Center
08:04AM 39.5928 -106.1811 253° West 169 194 17,200  Climbing Denver Center
08:05AM 39.5772 -106.2381 251° West 168 193 17,200  Level Denver Center
08:06AM 39.5650 -106.2981 255° West 171 197 17,300  Climbing Denver Center
08:07AM 39.5531 -106.3589 256° West 174 200 17,300 -60 Level Denver Center
08:08AM 39.5408 -106.4189 255° West 172 198 17,200  Descending Denver Center
08:09AM 39.5264 -106.4806 253° West 177 204 17,300  Climbing Denver Center
08:10AM 39.5117 -106.5558 256° West 180 207 17,300 -120 Level Denver Center
08:11AM 39.4986 -106.6144 254° West 178 205 17,100 -120 Descending Denver Center
08:12AM 39.4869 -106.6739 256° West 177 204 17,100  Level Denver Center
08:13AM 39.4731 -106.7411 255° West 173 199 17,100  Level Denver Center
08:14AM 39.4631 -106.7994 257° West 173 199 17,100 -180 Level Denver Center
08:15AM 39.4475 -106.8553 250° West 172 198 16,800 -180 Descending Denver Center
08:16AM 39.4325 -106.9111 251° West 172 198 16,800  Level Denver Center
08:17AM 39.4222 -106.9747 258° West 164 189 16,800  Level Denver Center
08:18AM 39.4133 -107.0306 258° West 165 190 16,800  Level Denver Center
08:19AM 39.4033 -107.0872 257° West 167 192 16,800  Level Denver Center
08:20AM 39.3928 -107.1450 257° West 166 191 16,800  Level Denver Center
08:21AM 39.3822 -107.2042 257° West 161 185 16,800  Level Denver Center
08:22AM 39.3717 -107.2578 256° West 161 185 16,800  Level Denver Center
08:23AM 39.3608 -107.3219 258° West 165 190 16,800  Level Denver Center
08:24AM 39.3503 -107.3786 256° West 170 196 16,800  Level Denver Center
08:25AM 39.3392 -107.4325 255° West 164 189 16,800  Level Denver Center
08:26AM 39.3258 -107.4939 254° West 160 184 16,800 -300 Level Denver Center
08:27AM 39.3139 -107.5475 254° West 161 185 16,300 -480 Descending Denver Center
08:28AM 39.3028 -107.6128 258° West 188 216 15,900 -480 Descending Denver Center
08:29AM 39.2914 -107.6858 259° West 189 217 15,400 -420 Descending Denver Center
08:30AM 39.2808 -107.7514 258° West 191 220 15,100 -180 Descending Denver Center
08:31AM 39.2675 -107.8119 254° West 186 214 15,100 -120 Level Denver Center
08:32AM 39.2514 -107.8789 253° West 178 205 14,900 -600 Descending Denver Center
08:33AM 39.2378 -107.9442 255° West 190 219 13,900 -900 Descending Denver Center
08:34AM 39.2208 -108.0175 253° West 207 238 13,100 -720 Descending Denver Center
08:35AM 39.2092 -108.0825 257° West 187 215 12,500 -540 Descending Denver Center
08:36AM 39.1961 -108.1556 257° West 192 221 12,100 -600 Descending Denver Center
08:37AM 39.1856 -108.2203 258° West 187 215 11,300 -480 Descending Denver Center
08:38AM 39.1803 -108.2883 264° West 190 219 11,200 -120 Descending Denver Center
08:39AM 39.1769 -108.3503 266° West 175 201 11,100 -60 Descending Denver Center
08:40AM 39.1872 -108.4050 284° West 168 193 11,100 -120 Level Denver Center
08:41AM 39.2106 -108.4547 301° West 159 183 10,900 -480 Descending Denver Center
08:42AM 39.2347 -108.5197 296° West 188 216 10,200 -420 Descending Denver Center
08:43AM 39.2581 -108.5778 297° West 184 212 10,100 -300 Descending Denver Center
08:44AM 39.2811 -108.6300 300° West 170 196 9,600 -660 Descending Denver Center
08:45AM 39.2783 -108.6917 267° West 198 228 8,800 -540 Descending Denver Center
08:46AM 39.2306 -108.7067 194° South 201 231 8,600 -780 Descending Denver Center
08:47AM 39.1961 -108.6586 133° Southeast 172 198 7,300 -1,140 Descending Denver Center
08:48AM 39.1728 -108.6147 124° Southeast 152 175 6,400 -840 Descending Denver Center
08:49AM 39.1517 -108.5761 125° Southeast 138 159 5,700 -840 Descending Denver Center
08:50AM 39.1308 -108.5381 125° Southeast 131 151 4,800 -480 Descending Denver Center
08:51AM 39.1247 -108.5247 121° Southeast 86 99 4,800  Level Denver Center
08:53AM 39.1224 -108.5267 90° East  Level Estimated
09:00AM 39.1224 -108.5267 90° East  Level Estimated
09:01AM 39.1224 -108.5267 90° East  Level Estimated